createdAt,value
2022-08-30T00:00:58.909Z,100.00
2022-08-30T00:03:25.717Z,100.00
2022-08-30T00:05:52.274Z,100.00
2022-08-30T00:08:23.145Z,100.00
2022-08-30T00:10:51.270Z,100.00
2022-08-30T00:13:18.886Z,100.00
2022-08-30T00:15:46.205Z,100.00
2022-08-30T00:18:12.804Z,100.00
2022-08-30T00:20:39.585Z,100.00
2022-08-30T00:23:06.306Z,100.00
2022-08-30T00:25:33.162Z,100.00
2022-08-30T00:27:59.672Z,100.00
2022-08-30T00:30:26.092Z,100.00
2022-08-30T00:32:54.122Z,100.00
2022-08-30T00:35:21.358Z,100.00
2022-08-30T00:37:48.592Z,100.00
2022-08-30T00:40:16.062Z,100.00
2022-08-30T00:42:44.082Z,100.00
2022-08-30T00:45:27.247Z,100.00
2022-08-30T00:47:53.995Z,100.00
2022-08-30T00:50:22.104Z,100.00
2022-08-30T00:52:50.872Z,100.00
2022-08-30T00:55:18.177Z,100.00
2022-08-30T00:57:46.280Z,100.00
2022-08-30T01:00:13.890Z,100.00
2022-08-30T01:02:40.990Z,100.00
2022-08-30T01:05:08.740Z,100.00
2022-08-30T01:07:35.178Z,100.00
2022-08-30T01:10:02.609Z,100.00
2022-08-30T01:12:30.072Z,100.00
2022-08-30T01:14:57.450Z,100.00
2022-08-30T01:17:24.967Z,100.00
2022-08-30T01:20:00.818Z,100.00
2022-08-30T01:22:44.271Z,100.00
2022-08-30T01:25:15.038Z,100.00
2022-08-30T01:27:44.328Z,100.00
2022-08-30T01:30:11.098Z,100.00
2022-08-30T01:32:47.311Z,100.00
2022-08-30T01:35:15.068Z,100.00
2022-08-30T01:37:41.858Z,100.00
2022-08-30T01:40:08.656Z,100.00
2022-08-30T01:42:35.209Z,100.00
2022-08-30T01:45:01.689Z,100.00
2022-08-30T01:50:50.032Z,100.00
2022-08-30T01:53:16.749Z,100.00
2022-08-30T01:55:43.294Z,100.00
2022-08-30T01:58:09.816Z,100.00
2022-08-30T02:00:36.516Z,100.00
2022-08-30T02:03:02.989Z,100.00
2022-08-30T02:05:29.832Z,100.00
2022-08-30T02:07:56.569Z,100.00
2022-08-30T02:10:23.762Z,100.00
2022-08-30T02:12:50.427Z,100.00
2022-08-30T02:15:17.241Z,100.00
2022-08-30T02:17:43.675Z,100.00
2022-08-30T02:20:10.547Z,100.00
2022-08-30T02:22:37.415Z,100.00
2022-08-30T02:25:05.657Z,100.00
2022-08-30T02:27:36.150Z,100.00
2022-08-30T02:30:05.642Z,100.00
2022-08-30T02:32:32.026Z,100.00
2022-08-30T02:34:58.390Z,100.00
2022-08-30T02:37:24.845Z,100.00
2022-08-30T02:39:51.306Z,100.00
2022-08-30T02:42:17.752Z,100.00
2022-08-30T02:44:44.135Z,100.00
2022-08-30T02:47:10.570Z,100.00
2022-08-30T02:49:37.034Z,100.00
2022-08-30T02:52:04.527Z,100.00
2022-08-30T02:54:33.150Z,100.00
2022-08-30T02:57:04.805Z,100.00
2022-08-30T02:59:32.092Z,100.00
2022-08-30T03:01:58.518Z,100.00
2022-08-30T03:04:26.604Z,100.00
2022-08-30T03:06:53.509Z,100.00
2022-08-30T03:09:19.945Z,100.00
2022-08-30T03:11:46.347Z,100.00
2022-08-30T03:14:14.643Z,100.00
2022-08-30T03:16:41.118Z,100.00
2022-08-30T03:19:07.540Z,100.00
2022-08-30T03:21:34.098Z,100.00
2022-08-30T03:24:01.592Z,100.00
2022-08-30T03:26:28.032Z,100.00
2022-08-30T03:28:54.412Z,100.00
2022-08-30T03:31:20.960Z,100.00
2022-08-30T03:33:47.361Z,100.00
2022-08-30T03:36:13.807Z,100.00
2022-08-30T03:38:40.500Z,100.00
2022-08-30T03:41:07.548Z,100.00
2022-08-30T03:43:35.670Z,100.00
2022-08-30T03:46:02.752Z,100.00
2022-08-30T03:48:29.465Z,100.00
2022-08-30T03:50:56.276Z,100.00
2022-08-30T03:53:25.162Z,100.00
2022-08-30T03:55:53.901Z,100.00
2022-08-30T03:58:21.328Z,100.00
2022-08-30T04:00:47.773Z,100.00
2022-08-30T04:03:14.285Z,100.00
2022-08-30T04:05:40.891Z,100.00
2022-08-30T04:08:07.792Z,100.00
2022-08-30T04:10:35.361Z,100.00
2022-08-30T04:13:01.926Z,100.00
2022-08-30T04:15:28.384Z,100.00
2022-08-30T04:17:55.025Z,100.00
2022-08-30T04:20:21.869Z,100.00
2022-08-30T04:22:48.244Z,100.00
2022-08-30T04:25:15.726Z,100.00
2022-08-30T04:27:42.536Z,100.00
2022-08-30T04:30:09.229Z,100.00
2022-08-30T04:32:35.988Z,100.00
2022-08-30T04:35:02.436Z,100.00
2022-08-30T04:37:29.392Z,100.00
2022-08-30T04:40:00.792Z,100.00
2022-08-30T04:42:31.341Z,100.00
2022-08-30T04:44:58.188Z,100.00
2022-08-30T04:47:24.550Z,100.00
2022-08-30T04:49:51.995Z,100.00
2022-08-30T04:52:18.505Z,100.00
2022-08-30T04:54:45.158Z,100.00
2022-08-30T04:57:11.641Z,100.00
2022-08-30T04:59:38.543Z,100.00
2022-08-30T05:02:05.354Z,100.00
2022-08-30T05:04:31.850Z,100.00
2022-08-30T05:06:58.291Z,100.00
2022-08-30T05:09:24.679Z,100.00
2022-08-30T05:11:51.110Z,100.00
2022-08-30T05:14:17.480Z,100.00
2022-08-30T05:16:45.098Z,100.00
2022-08-30T05:19:11.677Z,100.00
2022-08-30T05:21:40.611Z,100.00
2022-08-30T05:24:08.096Z,100.00
2022-08-30T05:26:35.039Z,100.00
2022-08-30T05:29:01.607Z,100.00
2022-08-30T05:31:29.769Z,100.00
2022-08-30T05:33:56.357Z,100.00
2022-08-30T05:36:24.094Z,100.00
2022-08-30T05:38:50.692Z,100.00
2022-08-30T05:41:18.815Z,100.00
2022-08-30T05:43:45.198Z,100.00
2022-08-30T05:46:13.598Z,100.00
2022-08-30T05:48:40.388Z,100.00
2022-08-30T05:51:07.022Z,94.21
2022-08-30T05:53:33.966Z,88.91
2022-08-30T05:56:01.684Z,85.14
2022-08-30T05:58:28.460Z,81.89
2022-08-30T06:00:54.902Z,78.82
2022-08-30T06:03:21.412Z,76.13
2022-08-30T06:05:47.832Z,73.93
2022-08-30T06:08:14.411Z,72.23
2022-08-30T06:10:40.879Z,72.84
2022-08-30T06:13:07.438Z,72.41
2022-08-30T06:15:33.973Z,77.41
2022-08-30T06:18:00.855Z,79.38
2022-08-30T06:20:27.291Z,82.50
2022-08-30T06:22:53.815Z,87.74
2022-08-30T06:25:20.373Z,91.27
2022-08-30T06:27:46.760Z,93.11
2022-08-30T06:30:13.419Z,94.87
2022-08-30T06:32:40.068Z,95.76
2022-08-30T06:35:07.387Z,96.51
2022-08-30T06:37:34.465Z,97.45
2022-08-30T06:40:02.570Z,99.43
2022-08-30T06:42:32.291Z,100.00
2022-08-30T06:45:00.012Z,100.00
2022-08-30T06:47:27.500Z,100.00
2022-08-30T06:49:53.994Z,100.00
2022-08-30T06:52:21.632Z,100.00
2022-08-30T06:54:48.116Z,100.00
2022-08-30T06:57:14.720Z,100.00
2022-08-30T06:59:41.373Z,100.00
2022-08-30T07:02:07.964Z,100.00
2022-08-30T07:04:34.749Z,100.00
2022-08-30T07:07:01.378Z,100.00
2022-08-30T07:09:27.909Z,100.00
2022-08-30T07:11:54.587Z,100.00
2022-08-30T07:14:21.914Z,100.00
2022-08-30T07:16:51.248Z,99.49
2022-08-30T07:19:20.926Z,98.89
2022-08-30T07:21:49.284Z,98.99
2022-08-30T07:24:16.474Z,99.76
2022-08-30T07:26:46.724Z,99.46
2022-08-30T07:29:13.166Z,98.79
2022-08-30T07:31:40.447Z,95.39
2022-08-30T07:34:07.563Z,97.76
2022-08-30T07:36:34.838Z,96.43
2022-08-30T07:39:02.022Z,96.06
2022-08-30T07:41:32.944Z,96.10
2022-08-30T07:43:59.470Z,94.62
2022-08-30T07:46:26.135Z,93.45
2022-08-30T07:48:55.184Z,92.28
2022-08-30T07:51:24.793Z,90.54
2022-08-30T07:53:51.673Z,88.00
2022-08-30T07:56:18.265Z,88.28
2022-08-30T07:58:44.823Z,88.72
2022-08-30T08:01:12.132Z,88.78
2022-08-30T08:03:42.339Z,87.52
2022-08-30T08:06:10.649Z,85.89
2022-08-30T08:08:37.684Z,83.75
2022-08-30T08:11:33.680Z,85.61
2022-08-30T08:14:00.659Z,85.61
2022-08-30T08:16:29.161Z,82.47
2022-08-30T08:18:56.600Z,85.18
2022-08-30T08:21:23.553Z,82.98
2022-08-30T08:23:50.279Z,81.81
2022-08-30T08:26:17.124Z,78.66
2022-08-30T08:28:44.999Z,80.66
2022-08-30T08:31:16.013Z,80.50
2022-08-30T08:33:42.432Z,78.99
2022-08-30T08:36:09.567Z,79.53
2022-08-30T08:38:37.101Z,78.82
2022-08-30T08:41:23.157Z,76.54
2022-08-30T08:43:49.701Z,75.78
2022-08-30T08:46:18.897Z,77.68
2022-08-30T08:48:59.904Z,75.13
2022-08-30T08:51:47.263Z,75.99
2022-08-30T08:54:21.741Z,77.65
2022-08-30T08:56:48.346Z,78.13
2022-08-30T08:59:15.293Z,76.59
2022-08-30T09:01:41.948Z,74.15
2022-08-30T09:04:10.304Z,75.07
2022-08-30T09:06:50.469Z,76.31
2022-08-30T09:09:20.534Z,75.02
2022-08-30T09:11:47.965Z,74.99
2022-08-30T09:14:19.743Z,78.09
2022-08-30T09:16:54.585Z,69.82
2022-08-30T09:19:28.758Z,72.95
2022-08-30T09:22:02.644Z,68.08
2022-08-30T09:24:45.961Z,67.82
2022-08-30T09:27:17.592Z,68.31
2022-08-30T09:29:50.028Z,67.15
2022-08-30T09:32:37.553Z,66.86
2022-08-30T09:35:07.688Z,71.15
2022-08-30T09:37:38.958Z,67.39
2022-08-30T09:40:10.352Z,65.22
2022-08-30T09:42:37.320Z,64.15
2022-08-30T09:45:12.939Z,65.73
2022-08-30T09:47:40.843Z,63.36
2022-08-30T09:50:10.398Z,62.16
2022-08-30T09:52:45.958Z,61.61
2022-08-30T09:55:24.051Z,62.98
2022-08-30T09:58:02.615Z,64.16
2022-08-30T10:00:31.670Z,63.60
2022-08-30T10:03:34.885Z,60.07
2022-08-30T10:06:06.329Z,61.30
2022-08-30T10:08:39.233Z,59.83
2022-08-30T10:11:08.174Z,59.47
2022-08-30T10:14:05.625Z,57.13
2022-08-30T10:16:37.913Z,59.43
2022-08-30T10:19:29.701Z,59.35
2022-08-30T10:22:07.010Z,59.91
2022-08-30T10:24:43.962Z,63.19
2022-08-30T10:27:48.967Z,63.83
2022-08-30T10:30:16.721Z,63.95
2022-08-30T10:32:46.553Z,65.16
2022-08-30T10:35:19.163Z,66.08
2022-08-30T10:38:07.129Z,66.27
2022-08-30T10:40:53.278Z,68.11
2022-08-30T10:43:25.597Z,66.97
2022-08-30T10:45:55.152Z,66.83
2022-08-30T10:48:33.657Z,66.09
2022-08-30T10:51:04.419Z,63.13
2022-08-30T10:53:30.809Z,62.29
2022-08-30T10:56:07.148Z,61.29
2022-08-30T10:58:33.682Z,62.38
2022-08-30T11:01:19.019Z,62.17
2022-08-30T11:04:08.221Z,58.30
2022-08-30T11:06:45.211Z,55.18
2022-08-30T11:09:29.896Z,57.04
2022-08-30T11:12:11.235Z,51.86
2022-08-30T11:14:43.314Z,53.82
2022-08-30T11:17:23.673Z,53.00
2022-08-30T11:19:50.820Z,55.47
2022-08-30T11:22:26.252Z,53.67
2022-08-30T11:25:00.639Z,54.17
2022-08-30T11:27:40.783Z,55.52
2022-08-30T11:30:26.702Z,58.58
2022-08-30T11:32:59.503Z,56.45
2022-08-30T11:35:36.601Z,56.75
2022-08-30T11:38:11.755Z,57.75
2022-08-30T11:40:45.936Z,59.29
2022-08-30T11:43:31.207Z,60.51
2022-08-30T11:46:16.950Z,61.13
2022-08-30T11:48:53.626Z,61.20
2022-08-30T11:51:41.257Z,61.10
2022-08-30T11:54:16.229Z,60.63
2022-08-30T11:57:03.977Z,61.49
2022-08-30T11:59:37.275Z,60.92
2022-08-30T12:02:04.712Z,61.28
2022-08-30T12:04:46.733Z,60.73
2022-08-30T12:07:35.792Z,59.55
2022-08-30T12:10:04.726Z,58.76
2022-08-30T12:12:47.730Z,58.68
2022-08-30T12:15:43.397Z,59.59
2022-08-30T12:18:29.330Z,61.55
2022-08-30T12:21:05.134Z,61.79
2022-08-30T12:23:44.333Z,63.59
2022-08-30T12:26:20.112Z,62.56
2022-08-30T12:28:49.123Z,62.89
2022-08-30T12:31:18.807Z,63.00
2022-08-30T12:33:49.017Z,62.18
2022-08-30T12:36:50.838Z,61.65
2022-08-30T12:39:22.020Z,61.48
2022-08-30T12:41:48.423Z,62.11
2022-08-30T12:44:26.567Z,61.74
2022-08-30T12:46:59.535Z,62.80
2022-08-30T12:49:29.891Z,63.29
2022-08-30T12:51:57.479Z,63.07
2022-08-30T12:54:29.129Z,62.88
2022-08-30T12:57:03.664Z,62.20
2022-08-30T12:59:44.402Z,63.05
2022-08-30T13:02:20.105Z,61.40
2022-08-30T13:04:47.779Z,62.85
2022-08-30T13:07:27.808Z,63.54
2022-08-30T13:10:09.418Z,62.96
2022-08-30T13:12:40.447Z,61.90
2022-08-30T13:15:10.149Z,62.10
2022-08-30T13:17:36.673Z,62.72
2022-08-30T13:20:05.505Z,61.27
2022-08-30T13:22:31.871Z,62.45
2022-08-30T13:24:58.646Z,62.24
2022-08-30T13:27:25.845Z,62.25
2022-08-30T13:29:52.487Z,59.25
2022-08-30T13:32:18.851Z,57.71
2022-08-30T13:34:45.527Z,57.88
2022-08-30T13:40:04.624Z,61.10
2022-08-30T13:42:32.021Z,60.34
2022-08-30T13:44:58.780Z,60.87
2022-08-30T13:47:33.291Z,60.71
2022-08-30T13:50:01.721Z,60.77
2022-08-30T13:52:28.330Z,61.55
2022-08-30T13:54:55.793Z,61.40
2022-08-30T14:00:14.953Z,60.56
2022-08-30T14:02:46.443Z,58.25
2022-08-30T14:05:46.750Z,58.53
2022-08-30T14:08:02.911Z,58.15
2022-08-30T14:10:30.998Z,59.03
2022-08-30T14:13:07.790Z,58.83
2022-08-30T14:15:36.255Z,58.00
2022-08-30T14:18:06.125Z,57.00
2022-08-30T14:20:32.553Z,57.77
2022-08-30T14:22:59.694Z,58.66
2022-08-30T14:25:28.614Z,60.08
2022-08-30T14:27:55.763Z,58.40
2022-08-30T14:30:23.979Z,58.77
2022-08-30T14:32:50.363Z,57.36
2022-08-30T14:35:19.301Z,57.35
2022-08-30T14:37:46.849Z,58.80
2022-08-30T14:40:13.894Z,59.35
2022-08-30T14:42:40.405Z,58.52
2022-08-30T14:45:08.945Z,58.51
2022-08-30T14:47:35.373Z,56.82
2022-08-30T14:50:02.202Z,55.67
2022-08-30T14:52:29.191Z,56.92
2022-08-30T14:55:05.254Z,57.58
2022-08-30T14:57:35.622Z,58.78
2022-08-30T15:00:07.960Z,59.57
2022-08-30T15:02:34.451Z,58.24
2022-08-30T15:05:01.429Z,59.63
2022-08-30T15:07:28.041Z,60.58
2022-08-30T15:09:54.497Z,60.27
2022-08-30T15:12:21.080Z,61.54
2022-08-30T15:14:47.531Z,62.41
2022-08-30T15:17:14.075Z,62.38
2022-08-30T15:19:41.955Z,63.45
2022-08-30T15:22:09.189Z,63.55
2022-08-30T15:24:36.210Z,62.25
2022-08-30T15:27:03.011Z,62.19
2022-08-30T15:29:31.699Z,63.05
2022-08-30T15:31:58.956Z,63.18
2022-08-30T15:34:28.005Z,63.44
2022-08-30T15:36:54.803Z,63.34
2022-08-30T15:39:21.295Z,63.36
2022-08-30T15:41:57.108Z,63.19
2022-08-30T15:44:26.336Z,62.28
2022-08-30T15:46:52.952Z,61.15
2022-08-30T15:49:21.059Z,61.18
2022-08-30T15:51:48.881Z,61.15
2022-08-30T15:54:19.353Z,60.42
2022-08-30T15:56:46.146Z,60.18
2022-08-30T15:59:15.330Z,60.06
2022-08-30T16:01:42.463Z,60.64
2022-08-30T16:04:10.295Z,60.84
2022-08-30T16:06:37.672Z,61.05
2022-08-30T16:09:05.710Z,61.16
2022-08-30T16:11:32.936Z,59.80
2022-08-30T16:14:01.131Z,60.27
2022-08-30T16:16:27.677Z,60.39
2022-08-30T16:18:54.700Z,61.60
2022-08-30T16:21:26.220Z,61.88
2022-08-30T16:23:54.307Z,61.73
2022-08-30T16:26:21.018Z,62.32
2022-08-30T16:28:49.220Z,61.65
2022-08-30T16:31:17.080Z,60.84
2022-08-30T16:33:45.040Z,59.99
2022-08-30T16:36:11.994Z,60.14
2022-08-30T16:38:39.252Z,59.89
2022-08-30T16:41:07.933Z,60.55
2022-08-30T16:43:35.720Z,60.73
2022-08-30T16:46:06.147Z,60.97
2022-08-30T16:48:33.275Z,61.45
2022-08-30T16:51:00.982Z,61.75
2022-08-30T16:53:27.535Z,62.91
2022-08-30T16:55:53.980Z,63.33
2022-08-30T16:58:22.382Z,61.60
2022-08-30T17:00:51.631Z,62.53
2022-08-30T17:03:18.760Z,62.10
2022-08-30T17:05:47.778Z,61.97
2022-08-30T17:08:16.519Z,62.79
2022-08-30T17:10:43.792Z,63.39
2022-08-30T17:13:13.797Z,64.15
2022-08-30T17:15:40.367Z,64.53
2022-08-30T17:18:08.129Z,65.22
2022-08-30T17:20:34.698Z,65.30
2022-08-30T17:23:02.078Z,65.78
2022-08-30T17:25:33.411Z,66.29
2022-08-30T17:28:00.503Z,67.23
2022-08-30T17:30:26.966Z,68.44
2022-08-30T17:32:53.695Z,69.58
2022-08-30T17:35:21.036Z,70.06
2022-08-30T17:37:47.787Z,71.45
2022-08-30T17:40:18.095Z,71.59
2022-08-30T17:42:47.598Z,72.27
2022-08-30T17:45:15.878Z,72.90
2022-08-30T17:47:42.435Z,73.17
2022-08-30T17:50:10.403Z,74.20
2022-08-30T17:52:38.123Z,73.92
2022-08-30T17:55:06.288Z,73.92
2022-08-30T17:57:32.806Z,74.39
2022-08-30T18:00:01.099Z,74.59
2022-08-30T18:02:30.316Z,74.74
2022-08-30T18:04:58.221Z,74.49
2022-08-30T18:07:26.515Z,75.40
2022-08-30T18:09:53.670Z,76.16
2022-08-30T18:12:20.875Z,76.83
2022-08-30T18:14:47.379Z,77.40
2022-08-30T18:17:19.808Z,78.15
2022-08-30T18:19:46.838Z,78.79
2022-08-30T18:22:13.746Z,79.95
2022-08-30T18:24:40.109Z,79.50
2022-08-30T18:27:07.145Z,79.39
2022-08-30T18:29:33.994Z,80.01
2022-08-30T18:32:01.388Z,81.02
2022-08-30T18:34:28.282Z,81.56
2022-08-30T18:36:54.819Z,81.61
2022-08-30T18:39:21.997Z,81.83
2022-08-30T18:41:49.333Z,82.19
2022-08-30T18:44:27.939Z,82.88
2022-08-30T18:46:57.102Z,82.97
2022-08-30T18:49:24.254Z,83.98
2022-08-30T18:51:50.666Z,84.19
2022-08-30T18:54:17.351Z,84.61
2022-08-30T18:56:45.113Z,84.92
2022-08-30T18:59:11.727Z,85.27
2022-08-30T19:01:39.108Z,86.08
2022-08-30T19:04:07.649Z,86.16
2022-08-30T19:06:34.365Z,85.88
2022-08-30T19:09:00.955Z,86.20
2022-08-30T19:11:27.788Z,86.64
2022-08-30T19:13:54.861Z,86.71
2022-08-30T19:16:22.099Z,87.18
2022-08-30T19:18:48.593Z,87.19
2022-08-30T19:21:15.349Z,88.73
2022-08-30T19:23:43.482Z,88.86
2022-08-30T19:26:10.787Z,89.28
2022-08-30T19:28:37.784Z,89.89
2022-08-30T19:31:04.442Z,90.20
2022-08-30T19:33:33.068Z,91.11
2022-08-30T19:35:59.902Z,90.65
2022-08-30T19:38:26.628Z,90.73
2022-08-30T19:40:59.752Z,90.99
2022-08-30T19:43:27.300Z,91.59
2022-08-30T19:45:58.220Z,91.48
2022-08-30T19:48:29.467Z,91.88
2022-08-30T19:51:00.049Z,91.97
2022-08-30T19:53:26.855Z,91.98
2022-08-30T19:55:53.331Z,93.20
2022-08-30T19:58:20.199Z,93.21
2022-08-30T20:00:54.601Z,93.90
2022-08-30T20:03:24.287Z,94.31
2022-08-30T20:05:50.783Z,94.90
2022-08-30T20:08:17.209Z,94.89
2022-08-30T20:10:44.248Z,95.15
2022-08-30T20:13:10.612Z,95.18
2022-08-30T20:15:37.245Z,95.14
2022-08-30T20:18:06.021Z,95.96
2022-08-30T20:20:39.768Z,96.69
2022-08-30T20:23:06.327Z,96.81
2022-08-30T20:25:32.998Z,96.90
2022-08-30T20:28:00.436Z,96.82
2022-08-30T20:30:27.412Z,96.46
2022-08-30T20:32:54.031Z,97.44
2022-08-30T20:35:20.601Z,97.66
2022-08-30T20:37:47.204Z,98.14
2022-08-30T20:40:15.944Z,99.36
2022-08-30T20:42:45.545Z,99.64
2022-08-30T20:45:16.411Z,98.97
2022-08-30T20:47:43.384Z,99.06
2022-08-30T20:50:13.883Z,99.33
2022-08-30T20:52:40.937Z,99.59
2022-08-30T20:55:08.320Z,99.72
2022-08-30T20:57:34.834Z,100.00
2022-08-30T21:00:02.399Z,100.00
2022-08-30T21:02:28.991Z,100.00
2022-08-30T21:04:55.512Z,100.00
2022-08-30T21:07:22.055Z,100.00
2022-08-30T21:09:48.491Z,100.00
2022-08-30T21:12:14.855Z,100.00
2022-08-30T21:14:41.281Z,100.00
2022-08-30T21:17:07.845Z,100.00
2022-08-30T21:19:34.358Z,100.00
2022-08-30T21:22:01.435Z,100.00
2022-08-30T21:24:27.970Z,100.00
2022-08-30T21:26:55.612Z,100.00
2022-08-30T21:29:22.118Z,100.00
2022-08-30T21:31:48.536Z,100.00
2022-08-30T21:34:17.499Z,100.00
2022-08-30T21:36:47.190Z,100.00
2022-08-30T21:39:13.569Z,100.00
2022-08-30T21:41:40.164Z,100.00
2022-08-30T21:44:07.940Z,100.00
2022-08-30T21:46:35.328Z,100.00
2022-08-30T21:49:04.352Z,100.00
2022-08-30T21:51:32.934Z,100.00
2022-08-30T21:53:59.393Z,100.00
2022-08-30T21:56:25.917Z,100.00
2022-08-30T21:58:52.319Z,100.00
2022-08-30T22:01:23.627Z,100.00
2022-08-30T22:03:51.149Z,100.00
2022-08-30T22:06:17.564Z,100.00
2022-08-30T22:08:45.255Z,100.00
2022-08-30T22:11:14.592Z,100.00
2022-08-30T22:13:42.782Z,100.00
2022-08-30T22:16:11.470Z,100.00
2022-08-30T22:18:38.122Z,100.00
2022-08-30T22:21:07.039Z,100.00
2022-08-30T22:23:34.222Z,100.00
2022-08-30T22:26:01.266Z,100.00
2022-08-30T22:28:28.004Z,100.00
2022-08-30T22:30:54.608Z,100.00
2022-08-30T22:33:21.175Z,100.00
2022-08-30T22:35:47.623Z,100.00
2022-08-30T22:38:14.718Z,100.00
2022-08-30T22:40:47.054Z,100.00
2022-08-30T22:43:13.817Z,100.00
2022-08-30T22:45:40.240Z,100.00
2022-08-30T22:48:06.718Z,100.00
2022-08-30T22:50:33.214Z,100.00
2022-08-30T22:52:59.600Z,100.00
2022-08-30T22:55:26.121Z,100.00
2022-08-30T22:57:52.706Z,100.00
2022-08-30T23:00:20.336Z,100.00
2022-08-30T23:02:47.816Z,100.00
2022-08-30T23:05:14.854Z,100.00
2022-08-30T23:07:41.274Z,100.00
2022-08-30T23:10:08.435Z,100.00
2022-08-30T23:12:38.125Z,100.00
2022-08-30T23:15:05.301Z,100.00
2022-08-30T23:17:31.822Z,100.00
2022-08-30T23:20:07.554Z,100.00
2022-08-30T23:22:34.192Z,100.00
2022-08-30T23:25:19.078Z,100.00
2022-08-30T23:28:05.018Z,100.00
2022-08-30T23:30:50.290Z,100.00
2022-08-30T23:33:37.208Z,100.00
2022-08-30T23:36:26.059Z,100.00
2022-08-30T23:39:11.194Z,100.00
2022-08-30T23:41:56.295Z,100.00
2022-08-30T23:44:41.611Z,100.00
2022-08-30T23:47:26.537Z,100.00
2022-08-30T23:50:11.639Z,100.00
2022-08-30T23:52:56.762Z,100.00
2022-08-30T23:55:42.551Z,100.00
2022-08-30T23:58:27.910Z,100.00
